Time;durP1;ratioP1;P1;durP2;ratioP2;P2;SDS_P1;SDS_P2;PMS_P1;PMS_P2;Temp;Humidity;BMP_temperature;BMP_pressure;BME280_temperature;BME280_humidity;BME280_pressure;Samples;Min_cycle;Max_cycle;Signal;HPM_P1;HPM_P2
2023/03/06 00:01:56;;;;;;;;;;;;;;;24.21;29.48;100122.22;5096727;28;1093;-28
2023/03/06 00:04:22;;;;;;;;;;;;;;;24.36;29.23;100124.13;5096574;28;1153;-25
2023/03/06 00:06:47;;;;;;;;;;;;;;;24.36;29.27;100121.44;5078636;28;1979;-25
2023/03/06 00:09:13;;;;;;;;;;;;;;;24.22;29.48;100117.72;5096271;28;871;-25
2023/03/06 00:11:38;;;;;;;;;;;;;;;24.19;29.50;100124.25;5096755;28;1034;-29
2023/03/06 00:14:04;;;;;;;;;;;;;;;24.16;29.57;100126.44;5096745;28;1127;-24
2023/03/06 00:16:29;;;;;;;;;;;;;;;24.05;29.90;100125.00;5096811;28;1074;-24
2023/03/06 00:18:55;;;;;;;;;;;;;;;24.16;29.60;100124.63;5096136;28;1039;-25
2023/03/06 00:21:20;;;;;;;;;;;;;;;24.07;29.66;100129.16;5096205;28;883;-25
2023/03/06 00:23:46;;;;;;;;;;;;;;;24.20;29.56;100130.47;5096498;28;1117;-24
2023/03/06 00:26:11;;;;;;;;;;;;;;;24.06;29.74;100130.19;5095938;28;1993;-25
2023/03/06 00:28:39;;;;;;;;;;;;;;;24.09;29.83;100123.63;5078188;28;1198;-28
2023/03/06 00:31:05;;;;;;;;;;;;;;;24.13;29.81;100130.31;5078300;28;1218;-25
2023/03/06 00:33:31;;;;;;;;;;;;;;;24.12;29.81;100128.66;5077635;28;1212;-27
2023/03/06 00:35:56;;;;;;;;;;;;;;;24.25;29.47;100125.41;5096345;28;1115;-27
2023/03/06 00:38:22;;;;;;;;;;;;;;;24.18;29.75;100127.13;5096558;28;1062;-27
2023/03/06 00:40:48;;;;;;;;;;;;;;;24.27;29.26;100119.84;5096199;28;1081;-25
2023/03/06 00:43:13;;;;;;;;;;;;;;;24.40;29.12;100119.25;5077885;28;1177;-26
2023/03/06 00:45:40;;;;;;;;;;;;;;;24.36;29.15;100121.44;5077920;28;1087;-25
2023/03/06 00:48:07;;;;;;;;;;;;;;;24.11;29.58;100121.59;5095687;28;1906;-26
2023/03/06 00:50:34;;;;;;;;;;;;;;;24.13;29.76;100122.25;5096499;28;1139;-25
2023/03/06 00:52:59;;;;;;;;;;;;;;;23.98;29.89;100122.19;5096286;28;1098;-25
2023/03/06 00:55:25;;;;;;;;;;;;;;;24.10;29.53;100119.94;5096215;28;1114;-25
2023/03/06 00:57:50;;;;;;;;;;;;;;;23.84;30.09;100119.22;5093710;28;892;-25
2023/03/06 01:00:16;;;;;;;;;;;;;;;23.91;29.94;100122.06;5096168;28;1035;-26
2023/03/06 01:02:42;;;;;;;;;;;;;;;24.05;29.59;100120.47;5077894;28;1099;-27
2023/03/06 01:05:07;;;;;;;;;;;;;;;24.14;29.59;100115.88;5096288;28;1022;-28
2023/03/06 01:07:35;;;;;;;;;;;;;;;24.28;29.22;100111.59;5095965;28;1980;-26
2023/03/06 01:10:01;;;;;;;;;;;;;;;24.14;29.42;100121.22;5081248;28;893;-25
2023/03/06 01:12:26;;;;;;;;;;;;;;;24.08;29.47;100117.44;5100024;28;1086;-24
2023/03/06 01:14:52;;;;;;;;;;;;;;;23.83;29.40;100079.97;5100267;28;1045;-27
2023/03/06 01:17:17;;;;;;;;;;;;;;;23.93;29.68;100121.88;5081283;28;1153;-27
2023/03/06 01:19:43;;;;;;;;;;;;;;;24.01;29.66;100115.59;5100258;28;1086;-24
2023/03/06 01:22:11;;;;;;;;;;;;;;;23.96;29.55;100113.47;5081343;28;1114;-25
2023/03/06 01:24:37;;;;;;;;;;;;;;;24.02;29.44;100112.78;5099684;28;1038;-27
2023/03/06 01:27:03;;;;;;;;;;;;;;;24.15;29.43;100112.19;5081379;28;1910;-25
2023/03/06 01:29:29;;;;;;;;;;;;;;;23.92;29.88;100110.28;5099584;28;1096;-24
2023/03/06 01:31:54;;;;;;;;;;;;;;;23.92;29.63;100112.97;5099424;28;1131;-24
2023/03/06 01:34:20;;;;;;;;;;;;;;;23.97;29.61;100112.47;5081836;28;1142;-26
2023/03/06 01:36:45;;;;;;;;;;;;;;;23.87;29.58;100112.69;5099773;28;1100;-26
2023/03/06 01:39:11;;;;;;;;;;;;;;;23.81;29.30;100114.22;5099369;28;1137;-24
2023/03/06 01:41:36;;;;;;;;;;;;;;;23.84;29.29;100131.81;5081248;28;1063;-26
2023/03/06 01:44:02;;;;;;;;;;;;;;;23.82;29.12;100129.31;5099715;28;1157;-25
2023/03/06 01:46:28;;;;;;;;;;;;;;;23.82;29.26;100123.13;5098755;28;1905;-24
2023/03/06 01:48:55;;;;;;;;;;;;;;;23.83;29.28;100128.31;5099350;28;1129;-24
2023/03/06 01:51:22;;;;;;;;;;;;;;;23.88;29.28;100137.69;5081007;28;1067;-25
2023/03/06 01:53:47;;;;;;;;;;;;;;;23.67;29.58;100147.19;5080776;28;1162;-25
2023/03/06 01:56:13;;;;;;;;;;;;;;;23.77;29.31;100141.59;5099419;28;1129;-27
2023/03/06 01:58:39;;;;;;;;;;;;;;;23.80;29.23;100152.00;5080503;28;1558;-24
2023/03/06 02:01:04;;;;;;;;;;;;;;;23.72;29.27;100152.88;5080896;28;1154;-25
2023/03/06 02:03:30;;;;;;;;;;;;;;;23.83;29.28;100160.53;5085898;28;975;-25
2023/03/06 02:05:55;;;;;;;;;;;;;;;23.84;29.35;100159.53;5099187;28;1901;-25
2023/03/06 02:08:22;;;;;;;;;;;;;;;23.87;29.40;100168.25;5085505;28;982;-25
2023/03/06 02:11:04;;;;;;;;;;;;;;;23.81;29.55;100170.63;5080487;28;913;-24
2023/03/06 02:13:29;;;;;;;;;;;;;;;23.69;29.79;100175.53;5070102;28;1067;-25
2023/03/06 02:15:55;;;;;;;;;;;;;;;23.88;29.43;100173.44;5098507;28;1059;-24
2023/03/06 02:18:20;;;;;;;;;;;;;;;23.97;29.27;100171.56;5080709;28;1317;-25
2023/03/06 02:20:47;;;;;;;;;;;;;;;23.70;29.76;100171.84;5080282;28;1022;-24
2023/03/06 02:23:37;;;;;;;;;;;;;;;23.78;29.76;100173.66;5064033;28;1141;-25
2023/03/06 02:26:03;;;;;;;;;;;;;;;23.73;30.00;100176.03;5099011;28;1902;-23
2023/03/06 02:28:28;;;;;;;;;;;;;;;23.69;29.97;100172.03;5080824;28;1305;-29
2023/03/06 02:30:54;;;;;;;;;;;;;;;23.75;29.77;100181.22;5079736;28;1062;-24
2023/03/06 02:33:21;;;;;;;;;;;;;;;23.75;29.85;100186.59;5080198;28;1114;-27
2023/03/06 02:35:56;;;;;;;;;;;;;;;23.74;29.85;100180.38;5097857;28;1116;-25
2023/03/06 02:38:45;;;;;;;;;;;;;;;23.76;29.88;100180.19;5091387;28;1047;-25
2023/03/06 02:41:11;;;;;;;;;;;;;;;23.71;29.98;100180.72;5080262;28;1070;-24
2023/03/06 02:43:37;;;;;;;;;;;;;;;23.64;30.08;100185.94;5098275;28;1264;-26
2023/03/06 02:46:03;;;;;;;;;;;;;;;23.58;30.30;100190.19;5079859;28;1906;-25
2023/03/06 02:48:28;;;;;;;;;;;;;;;23.70;30.02;100179.06;5098243;28;1130;-24
2023/03/06 02:50:54;;;;;;;;;;;;;;;23.95;29.71;100187.88;5098239;28;1079;-30
2023/03/06 02:53:20;;;;;;;;;;;;;;;23.80;29.91;100185.06;5098115;28;1042;-27
2023/03/06 02:55:45;;;;;;;;;;;;;;;23.82;29.92;100192.94;5098485;28;1122;-27
2023/03/06 02:58:13;;;;;;;;;;;;;;;23.59;30.12;100191.00;5079784;28;1223;-25
2023/03/06 03:00:39;;;;;;;;;;;;;;;23.81;29.87;100197.47;5079470;28;1126;-25
2023/03/06 03:03:07;;;;;;;;;;;;;;;23.64;30.06;100187.81;5097464;28;1081;-25
2023/03/06 03:05:32;;;;;;;;;;;;;;;23.83;30.02;100192.78;5097785;28;1121;-24
2023/03/06 03:08:04;;;;;;;;;;;;;;;23.88;29.84;100197.63;5079217;28;1997;-24
2023/03/06 03:10:31;;;;;;;;;;;;;;;23.60;30.26;100198.06;5097434;28;877;-26
2023/03/06 03:12:57;;;;;;;;;;;;;;;23.56;30.33;100196.72;5079528;28;1175;-28
2023/03/06 03:15:24;;;;;;;;;;;;;;;23.95;29.72;100195.06;5079350;28;1149;-28
2023/03/06 03:17:49;;;;;;;;;;;;;;;23.66;30.16;100193.84;5097697;28;1121;-25
2023/03/06 03:20:16;;;;;;;;;;;;;;;23.72;30.15;100188.59;5097765;28;1140;-26
2023/03/06 03:22:41;;;;;;;;;;;;;;;23.68;30.07;100194.50;5096533;28;1075;-27
2023/03/06 03:25:07;;;;;;;;;;;;;;;23.85;29.84;100203.34;5097869;28;1208;-26
2023/03/06 03:27:33;;;;;;;;;;;;;;;23.72;30.02;100196.66;5078894;28;1985;-25
2023/03/06 03:29:58;;;;;;;;;;;;;;;23.84;29.67;100197.13;5078558;28;1054;-26
2023/03/06 03:32:25;;;;;;;;;;;;;;;23.62;30.24;100196.06;5078137;28;1273;-28
2023/03/06 03:34:51;;;;;;;;;;;;;;;23.72;30.04;100199.34;5097398;28;893;-25
2023/03/06 03:37:17;;;;;;;;;;;;;;;23.81;29.81;100199.31;5065712;28;1201;-26
2023/03/06 03:39:42;;;;;;;;;;;;;;;23.72;29.97;100191.28;5097649;28;1267;-26
2023/03/06 03:42:08;;;;;;;;;;;;;;;23.60;30.23;100204.28;5078177;28;1214;-26
2023/03/06 03:44:34;;;;;;;;;;;;;;;23.70;29.98;100203.22;5078651;28;1070;-24
2023/03/06 03:47:00;;;;;;;;;;;;;;;23.71;29.97;100200.38;5078264;28;1974;-24
2023/03/06 03:49:26;;;;;;;;;;;;;;;23.69;29.88;100199.69;5079110;28;1143;-25
2023/03/06 03:51:52;;;;;;;;;;;;;;;23.75;29.80;100206.25;5078777;28;1264;-24
2023/03/06 03:54:19;;;;;;;;;;;;;;;23.77;29.75;100206.91;5079033;28;1194;-27
2023/03/06 03:56:46;;;;;;;;;;;;;;;23.76;29.74;100213.28;5078979;28;1413;-25
2023/03/06 03:59:18;;;;;;;;;;;;;;;23.81;29.72;100205.53;5078248;28;1907;-25
2023/03/06 04:01:55;;;;;;;;;;;;;;;26.60;25.74;100208.88;5078439;28;1396;-25
2023/03/06 04:04:21;;;;;;;;;;;;;;;28.99;22.75;100218.00;5077766;28;1067;-26
2023/03/06 04:06:47;;;;;;;;;;;;;;;25.09;27.34;100221.59;5078444;28;1906;-25
2023/03/06 04:09:14;;;;;;;;;;;;;;;26.04;26.56;100226.50;5078853;28;1301;-25
2023/03/06 04:11:40;;;;;;;;;;;;;;;27.42;24.69;100225.72;5078367;28;1336;-26
2023/03/06 04:14:08;;;;;;;;;;;;;;;27.93;24.00;100227.28;5078123;28;1298;-25
2023/03/06 04:16:34;;;;;;;;;;;;;;;28.31;23.63;100233.25;5078370;28;1171;-23
2023/03/06 04:18:59;;;;;;;;;;;;;;;28.29;23.53;100232.63;5078497;28;1149;-23
2023/03/06 04:21:25;;;;;;;;;;;;;;;26.50;23.72;100222.69;5078688;28;1165;-25
2023/03/06 04:23:51;;;;;;;;;;;;;;;25.99;22.93;100232.41;5077491;28;1311;-26
2023/03/06 04:26:17;;;;;;;;;;;;;;;25.83;21.86;100238.84;5095019;28;1910;-25
2023/03/06 04:28:43;;;;;;;;;;;;;;;25.66;20.40;100236.34;5075821;28;1221;-26
2023/03/06 04:31:10;;;;;;;;;;;;;;;22.96;21.08;100229.16;5078697;28;1225;-28
2023/03/06 04:33:36;;;;;;;;;;;;;;;24.08;22.35;100232.13;5078286;28;1117;-26
2023/03/06 04:36:01;;;;;;;;;;;;;;;25.34;19.75;100224.06;5078120;28;1453;-27
2023/03/06 04:38:29;;;;;;;;;;;;;;;24.69;21.76;100220.69;5078056;28;1189;-29
2023/03/06 04:40:55;;;;;;;;;;;;;;;27.87;19.12;100234.34;5078227;28;1400;-28
2023/03/06 04:43:20;;;;;;;;;;;;;;;29.07;18.13;100241.31;5095845;28;1157;-26
2023/03/06 04:45:46;;;;;;;;;;;;;;;28.97;18.84;100239.03;5096032;28;1102;-26
2023/03/06 04:48:13;;;;;;;;;;;;;;;29.14;18.99;100246.72;5096400;28;2008;-25
2023/03/06 04:50:38;;;;;;;;;;;;;;;29.34;18.95;100255.66;5095845;28;1136;-25
2023/03/06 04:53:04;;;;;;;;;;;;;;;29.66;18.90;100256.91;5095877;28;1065;-25
2023/03/06 04:55:29;;;;;;;;;;;;;;;29.99;18.76;100252.41;5095928;28;987;-30
2023/03/06 04:57:55;;;;;;;;;;;;;;;26.70;23.08;100251.72;5082124;28;1078;-29
2023/03/06 05:00:21;;;;;;;;;;;;;;;27.56;22.26;100261.78;5078646;28;1192;-26
2023/03/06 05:02:47;;;;;;;;;;;;;;;28.53;20.72;100266.41;5096122;28;1090;-25
2023/03/06 05:05:13;;;;;;;;;;;;;;;28.79;20.42;100274.78;5095398;28;1135;-26
2023/03/06 05:07:38;;;;;;;;;;;;;;;28.89;20.56;100258.16;5095897;28;1905;-25
2023/03/06 05:10:04;;;;;;;;;;;;;;;28.80;20.64;100276.44;5095419;28;1035;-27
2023/03/06 05:12:30;;;;;;;;;;;;;;;28.93;20.62;100278.31;5096049;28;1508;-25
2023/03/06 05:14:56;;;;;;;;;;;;;;;26.21;21.30;100285.59;5096041;28;1109;-29
2023/03/06 05:17:22;;;;;;;;;;;;;;;25.35;21.63;100274.19;5095668;28;1029;-26
2023/03/06 05:19:47;;;;;;;;;;;;;;;25.90;20.71;100282.06;5096039;28;1039;-26
2023/03/06 05:22:13;;;;;;;;;;;;;;;26.22;20.17;100282.69;5095332;28;1145;-26
2023/03/06 05:24:38;;;;;;;;;;;;;;;26.24;20.29;100282.50;5095783;28;1090;-28
2023/03/06 05:27:04;;;;;;;;;;;;;;;26.26;19.65;100275.88;5095656;28;1985;-26
2023/03/06 05:29:29;;;;;;;;;;;;;;;26.21;19.38;100278.31;5095352;28;1105;-29
2023/03/06 05:31:55;;;;;;;;;;;;;;;26.29;19.11;100275.50;5095860;28;1122;-25
2023/03/06 05:34:21;;;;;;;;;;;;;;;26.37;18.96;100279.16;5095742;28;1154;-27
2023/03/06 05:36:46;;;;;;;;;;;;;;;26.24;19.06;100277.13;5095760;28;1197;-25
2023/03/06 05:39:12;;;;;;;;;;;;;;;26.23;18.88;100278.13;5095596;28;1129;-26
2023/03/06 05:41:37;;;;;;;;;;;;;;;26.00;18.23;100284.47;5095853;28;1051;-25
2023/03/06 05:44:03;;;;;;;;;;;;;;;26.12;18.05;100290.22;5082386;28;1155;-29
2023/03/06 05:46:29;;;;;;;;;;;;;;;26.58;18.21;100280.22;5094946;28;1914;-25
2023/03/06 05:48:56;;;;;;;;;;;;;;;26.34;18.12;100290.31;5095677;28;1134;-26
2023/03/06 05:51:21;;;;;;;;;;;;;;;26.36;18.20;100290.97;5095662;28;1077;-27
2023/03/06 05:53:47;;;;;;;;;;;;;;;26.39;18.20;100296.00;5077995;28;1066;-27
2023/03/06 05:56:13;;;;;;;;;;;;;;;27.90;16.96;100297.97;5099296;28;1058;-26
2023/03/06 05:58:38;;;;;;;;;;;;;;;28.82;16.55;100306.84;5099023;28;1109;-25
2023/03/06 06:01:10;;;;;;;;;;;;;;;29.27;16.94;100300.88;5099022;28;1018;-25
2023/03/06 06:03:36;;;;;;;;;;;;;;;29.66;17.09;100305.69;5099334;28;1039;-26
2023/03/06 06:06:05;;;;;;;;;;;;;;;29.78;17.49;100312.09;5099396;28;1057;-26
2023/03/06 06:08:30;;;;;;;;;;;;;;;29.99;17.58;100314.78;5099189;28;1186;-23
2023/03/06 06:10:56;;;;;;;;;;;;;;;27.60;20.66;100311.66;5099061;28;1082;-24
2023/03/06 06:13:22;;;;;;;;;;;;;;;26.69;21.89;100309.41;5099196;28;1118;-25
2023/03/06 06:15:47;;;;;;;;;;;;;;;29.28;18.83;100313.38;5098853;28;1173;-27
2023/03/06 06:18:13;;;;;;;;;;;;;;;29.56;19.00;100317.75;5098771;28;1123;-25
2023/03/06 06:20:38;;;;;;;;;;;;;;;29.45;19.01;100308.38;5098953;28;1038;-25
2023/03/06 06:23:04;;;;;;;;;;;;;;;29.57;19.12;100315.88;5098690;28;1030;-25
2023/03/06 06:25:30;;;;;;;;;;;;;;;29.87;19.06;100331.69;5098918;28;1193;-24
2023/03/06 06:27:56;;;;;;;;;;;;;;;27.79;21.05;100315.59;5098867;28;1967;-25
2023/03/06 06:30:22;;;;;;;;;;;;;;;28.15;21.14;100329.06;5098564;28;1196;-24
2023/03/06 06:32:47;;;;;;;;;;;;;;;29.37;20.00;100332.13;5099135;28;1030;-25
2023/03/06 06:35:13;;;;;;;;;;;;;;;29.51;19.76;100324.84;5093499;28;1146;-25
2023/03/06 06:37:39;;;;;;;;;;;;;;;29.64;19.62;100337.56;5097910;28;1146;-24
2023/03/06 06:40:04;;;;;;;;;;;;;;;29.56;19.85;100334.00;5098539;28;1109;-25
2023/03/06 06:42:30;;;;;;;;;;;;;;;29.60;19.83;100339.03;5098538;28;1007;-25
2023/03/06 06:44:56;;;;;;;;;;;;;;;27.54;22.33;100334.94;5098535;28;1142;-23
2023/03/06 06:47:21;;;;;;;;;;;;;;;27.08;22.79;100346.97;5097736;28;1905;-26
2023/03/06 06:49:51;;;;;;;;;;;;;;;29.24;20.48;100354.66;5097726;28;1240;-24
2023/03/06 06:52:17;;;;;;;;;;;;;;;30.25;19.53;100343.72;5098326;28;1201;-24
2023/03/06 06:54:43;;;;;;;;;;;;;;;27.44;22.42;100340.66;5098329;28;1201;-24
2023/03/06 06:57:09;;;;;;;;;;;;;;;26.30;24.04;100346.47;5098357;28;1134;-26
2023/03/06 06:59:35;;;;;;;;;;;;;;;28.41;21.96;100341.91;5079967;28;1070;-24
2023/03/06 07:02:00;;;;;;;;;;;;;;;29.07;20.77;100355.03;5097967;28;1125;-26
2023/03/06 07:04:26;;;;;;;;;;;;;;;29.57;20.50;100354.66;5097572;28;1073;-22
2023/03/06 07:06:54;;;;;;;;;;;;;;;30.08;19.93;100364.19;5097789;28;1898;-23
2023/03/06 07:09:21;;;;;;;;;;;;;;;30.10;19.88;100360.22;5097932;28;1033;-24
2023/03/06 07:11:46;;;;;;;;;;;;;;;29.58;20.49;100353.59;5098157;28;869;-23
2023/03/06 07:14:12;;;;;;;;;;;;;;;28.83;21.04;100351.81;5097550;28;1138;-26
2023/03/06 07:16:37;;;;;;;;;;;;;;;26.83;23.54;100356.25;5098034;28;1113;-24
2023/03/06 07:19:03;;;;;;;;;;;;;;;29.07;21.23;100347.75;5097759;28;1422;-24
2023/03/06 07:21:29;;;;;;;;;;;;;;;30.17;19.89;100349.34;5097617;28;1053;-25
2023/03/06 07:23:56;;;;;;;;;;;;;;;30.58;19.58;100358.19;5097113;28;1117;-24
2023/03/06 07:26:22;;;;;;;;;;;;;;;28.52;21.17;100345.91;5098004;28;1983;-25
2023/03/06 07:28:51;;;;;;;;;;;;;;;27.73;22.58;100352.34;5097601;28;1189;-26
2023/03/06 07:31:17;;;;;;;;;;;;;;;29.38;20.82;100358.22;5097090;28;1169;-24
2023/03/06 07:33:43;;;;;;;;;;;;;;;30.08;19.85;100356.06;5096894;28;1003;-25
2023/03/06 07:36:09;;;;;;;;;;;;;;;30.23;19.61;100363.97;5097414;28;959;-26
2023/03/06 07:38:35;;;;;;;;;;;;;;;30.36;19.48;100363.09;5097125;28;1229;-25
2023/03/06 07:41:00;;;;;;;;;;;;;;;30.10;19.82;100372.94;5097169;28;1006;-26
2023/03/06 07:43:26;;;;;;;;;;;;;;;28.42;21.69;100357.13;5097520;28;1142;-25
2023/03/06 07:45:59;;;;;;;;;;;;;;;27.43;22.86;100365.16;5079260;28;1223;-24
2023/03/06 07:48:25;;;;;;;;;;;;;;;30.27;19.78;100362.50;5096899;28;1902;-27
2023/03/06 07:51:01;;;;;;;;;;;;;;;28.31;21.49;100342.25;5096423;28;1105;-24
2023/03/06 07:53:26;;;;;;;;;;;;;;;27.65;22.45;100352.44;5096943;28;1050;-26
2023/03/06 07:55:52;;;;;;;;;;;;;;;29.30;20.89;100359.22;5097450;28;1133;-24
2023/03/06 07:58:18;;;;;;;;;;;;;;;29.65;20.32;100358.22;5096832;28;1110;-23
2023/03/06 08:00:43;;;;;;;;;;;;;;;30.07;19.80;100341.66;5096476;28;865;-26
2023/03/06 08:03:10;;;;;;;;;;;;;;;30.26;19.74;100347.28;5096907;28;1062;-25
2023/03/06 08:05:35;;;;;;;;;;;;;;;28.68;21.46;100346.56;5079053;28;1225;-24
2023/03/06 08:08:01;;;;;;;;;;;;;;;29.45;20.92;100345.47;5096357;28;1910;-25
2023/03/06 08:10:26;;;;;;;;;;;;;;;30.31;19.70;100350.19;5097088;28;1196;-23
2023/03/06 08:12:52;;;;;;;;;;;;;;;28.79;21.05;100347.88;5096529;28;1065;-23
2023/03/06 08:15:17;;;;;;;;;;;;;;;29.04;20.77;100347.34;5096517;28;1114;-27
2023/03/06 08:17:43;;;;;;;;;;;;;;;29.49;20.55;100340.47;5095707;28;1050;-25
2023/03/06 08:20:09;;;;;;;;;;;;;;;30.04;19.98;100358.34;5097023;28;1059;-24
2023/03/06 08:22:35;;;;;;;;;;;;;;;30.54;19.26;100355.09;5096640;28;1113;-24
2023/03/06 08:25:00;;;;;;;;;;;;;;;28.90;20.76;100360.81;5096492;28;1504;-24
2023/03/06 08:27:26;;;;;;;;;;;;;;;29.17;20.56;100349.22;5096687;28;1905;-28
2023/03/06 08:29:52;;;;;;;;;;;;;;;29.71;20.42;100354.69;5096677;28;1038;-24
2023/03/06 08:32:17;;;;;;;;;;;;;;;30.16;19.69;100356.63;5093174;28;1050;-25
2023/03/06 08:34:44;;;;;;;;;;;;;;;30.25;19.46;100354.56;5086709;28;1186;-23
2023/03/06 08:37:10;;;;;;;;;;;;;;;29.30;20.44;100354.66;5088917;28;1174;-24
2023/03/06 08:39:35;;;;;;;;;;;;;;;28.92;20.73;100355.19;5096850;28;1050;-23
2023/03/06 08:42:01;;;;;;;;;;;;;;;30.15;19.79;100362.28;5096470;28;1062;-23
2023/03/06 08:44:26;;;;;;;;;;;;;;;30.10;19.74;100353.94;5096214;28;1157;-24
2023/03/06 08:46:52;;;;;;;;;;;;;;;29.39;20.64;100362.56;5095775;28;1914;-24
2023/03/06 08:49:18;;;;;;;;;;;;;;;28.60;21.08;100366.53;5091733;28;890;-25
2023/03/06 08:51:43;;;;;;;;;;;;;;;28.92;21.18;100366.03;5095606;28;1097;-23
2023/03/06 08:54:10;;;;;;;;;;;;;;;28.83;20.87;100366.22;5096657;28;1084;-23
2023/03/06 08:56:35;;;;;;;;;;;;;;;28.53;21.39;100358.41;5078206;28;1157;-23
2023/03/06 08:59:01;;;;;;;;;;;;;;;28.29;21.64;100365.16;5096141;28;1011;-23
2023/03/06 09:01:28;;;;;;;;;;;;;;;28.34;21.48;100358.09;5084347;28;1042;-24
2023/03/06 09:03:54;;;;;;;;;;;;;;;27.83;22.65;100359.25;5096225;28;1089;-23
2023/03/06 09:06:20;;;;;;;;;;;;;;;28.20;21.82;100356.34;5095891;28;1905;-23
2023/03/06 09:08:45;;;;;;;;;;;;;;;28.18;21.78;100359.25;5096369;28;1185;-26
2023/03/06 09:11:11;;;;;;;;;;;;;;;28.10;21.95;100365.66;5095889;28;1393;-24
2023/03/06 09:13:37;;;;;;;;;;;;;;;28.07;22.05;100354.41;5077503;28;1192;-22
2023/03/06 09:16:02;;;;;;;;;;;;;;;28.22;21.76;100357.00;5096637;28;1141;-23
2023/03/06 09:18:28;;;;;;;;;;;;;;;28.32;21.52;100343.94;5095803;28;1049;-26
2023/03/06 09:20:54;;;;;;;;;;;;;;;28.19;20.80;100352.00;5095883;28;1078;-23
2023/03/06 09:23:20;;;;;;;;;;;;;;;27.77;20.96;100347.38;5095891;28;1070;-24
2023/03/06 09:25:50;;;;;;;;;;;;;;;27.93;20.79;100348.06;5095383;28;1076;-23
2023/03/06 09:28:16;;;;;;;;;;;;;;;27.81;20.98;100359.44;5095958;28;1906;-23
2023/03/06 09:30:42;;;;;;;;;;;;;;;27.98;20.81;100351.88;5099633;28;1046;-25
2023/03/06 09:33:07;;;;;;;;;;;;;;;27.82;20.74;100344.06;5099729;28;1204;-24
2023/03/06 09:35:33;;;;;;;;;;;;;;;27.53;21.76;100327.84;5099808;28;1046;-24
2023/03/06 09:37:59;;;;;;;;;;;;;;;27.58;21.96;100335.34;5091535;28;1157;-23
2023/03/06 09:40:29;;;;;;;;;;;;;;;27.60;21.40;100338.69;5099315;28;1153;-23
2023/03/06 09:42:55;;;;;;;;;;;;;;;27.83;20.45;100343.88;5099824;28;1085;-23
2023/03/06 09:45:21;;;;;;;;;;;;;;;27.84;21.58;100331.19;5099469;28;1138;-23
2023/03/06 09:47:48;;;;;;;;;;;;;;;27.84;20.65;100336.59;5099347;28;1973;-27
2023/03/06 09:50:26;;;;;;;;;;;;;;;27.81;20.44;100343.22;5099018;28;910;-23
2023/03/06 09:52:54;;;;;;;;;;;;;;;27.08;22.28;100338.88;5099927;28;1101;-23
2023/03/06 09:55:20;;;;;;;;;;;;;;;27.24;20.65;100333.19;5099292;28;1197;-24
2023/03/06 09:57:53;;;;;;;;;;;;;;;27.14;20.75;100330.84;5099754;28;1162;-23
2023/03/06 10:00:23;;;;;;;;;;;;;;;26.82;22.13;100334.84;5068704;28;1114;-23
2023/03/06 10:02:50;;;;;;;;;;;;;;;26.70;23.11;100337.19;5099036;28;1053;-23
2023/03/06 10:05:17;;;;;;;;;;;;;;;27.17;22.29;100339.59;5098861;28;1114;-23
2023/03/06 10:07:51;;;;;;;;;;;;;;;28.10;20.97;100332.38;5080682;28;1906;-23
2023/03/06 10:10:18;;;;;;;;;;;;;;;29.04;19.95;100340.06;5099291;28;1022;-24
2023/03/06 10:12:47;;;;;;;;;;;;;;;29.97;18.92;100338.53;5098856;28;1051;-26
2023/03/06 10:15:23;;;;;;;;;;;;;;;28.88;19.56;100335.00;5081696;28;1216;-24
2023/03/06 10:17:48;;;;;;;;;;;;;;;28.38;20.57;100331.50;5080957;28;1059;-23
2023/03/06 10:20:15;;;;;;;;;;;;;;;27.97;20.47;100325.03;5099039;28;1042;-26
2023/03/06 10:22:45;;;;;;;;;;;;;;;28.02;20.43;100317.16;5098715;28;1031;-24
2023/03/06 10:25:15;;;;;;;;;;;;;;;28.11;20.74;100323.25;5098536;28;1154;-24
2023/03/06 10:27:46;;;;;;;;;;;;;;;28.93;19.84;100317.06;5080778;28;1906;-24
2023/03/06 10:30:20;;;;;;;;;;;;;;;29.40;19.36;100313.59;5098475;28;1118;-25
2023/03/06 10:32:53;;;;;;;;;;;;;;;30.26;18.82;100320.94;5098822;28;1083;-23
2023/03/06 10:35:48;;;;;;;;;;;;;;;28.48;20.43;100314.88;5081147;28;1059;-23
2023/03/06 10:38:26;;;;;;;;;;;;;;;28.37;20.73;100313.59;5095152;28;1319;-24
2023/03/06 10:41:10;;;;;;;;;;;;;;;27.82;21.14;100317.88;5066638;28;1110;-23
2023/03/06 10:43:37;;;;;;;;;;;;;;;27.43;22.23;100317.38;5098367;28;1165;-24
2023/03/06 10:46:03;;;;;;;;;;;;;;;27.18;22.14;100306.13;5098255;28;1034;-23
2023/03/06 10:48:29;;;;;;;;;;;;;;;28.68;20.79;100314.09;5084716;28;1906;-24
2023/03/06 10:51:16;;;;;;;;;;;;;;;29.26;19.96;100301.91;5079985;28;1078;-24
2023/03/06 10:54:01;;;;;;;;;;;;;;;30.00;19.27;100324.56;5098032;28;1041;-24
2023/03/06 10:56:34;;;;;;;;;;;;;;;29.56;19.58;100320.44;5087402;28;1157;-28
2023/03/06 10:59:18;;;;;;;;;;;;;;;28.44;21.13;100308.22;5097893;28;1039;-24
2023/03/06 11:01:54;;;;;;;;;;;;;;;30.00;19.25;100311.00;5097569;28;1082;-25
2023/03/06 11:04:19;;;;;;;;;;;;;;;28.88;20.42;100300.63;5098437;28;1046;-23
2023/03/06 11:06:45;;;;;;;;;;;;;;;28.60;21.20;100296.19;5098466;28;1918;-23
2023/03/06 11:09:15;;;;;;;;;;;;;;;28.63;20.93;100295.78;5097572;28;1101;-24
2023/03/06 11:11:40;;;;;;;;;;;;;;;28.33;21.38;100293.41;5098232;28;1208;-23
2023/03/06 11:14:13;;;;;;;;;;;;;;;28.50;20.70;100293.03;5083894;28;1066;-25
2023/03/06 11:16:39;;;;;;;;;;;;;;;28.31;21.40;100287.34;5098035;28;1217;-24
2023/03/06 11:19:07;;;;;;;;;;;;;;;27.90;22.08;100276.34;5079746;28;1162;-26
2023/03/06 11:21:33;;;;;;;;;;;;;;;27.86;22.26;100272.38;5079656;28;1268;-24
2023/03/06 11:24:05;;;;;;;;;;;;;;;27.91;22.24;100280.69;5097795;28;1173;-25
2023/03/06 11:26:33;;;;;;;;;;;;;;;27.91;21.82;100283.41;5079323;28;1996;-23
2023/03/06 11:29:24;;;;;;;;;;;;;;;27.73;22.50;100283.94;5096969;28;1035;-24
2023/03/06 11:31:51;;;;;;;;;;;;;;;28.06;21.63;100274.34;5094403;28;1192;-23
2023/03/06 11:34:22;;;;;;;;;;;;;;;28.10;21.92;100272.91;5079211;28;1162;-24
2023/03/06 11:36:51;;;;;;;;;;;;;;;28.19;21.93;100271.69;5077865;28;1126;-23
2023/03/06 11:39:16;;;;;;;;;;;;;;;28.13;21.61;100264.38;5085461;28;1208;-23
2023/03/06 11:42:03;;;;;;;;;;;;;;;28.06;21.90;100261.66;5097579;28;1154;-24
2023/03/06 11:44:29;;;;;;;;;;;;;;;28.09;21.90;100265.84;5078980;28;1046;-24
2023/03/06 11:47:04;;;;;;;;;;;;;;;27.74;22.01;100256.69;5096495;28;1980;-24
2023/03/06 11:49:53;;;;;;;;;;;;;;;28.00;22.08;100254.34;5078761;28;1154;-24
2023/03/06 11:52:34;;;;;;;;;;;;;;;28.94;21.03;100253.78;5080318;28;1564;-23
2023/03/06 11:54:59;;;;;;;;;;;;;;;28.59;21.28;100260.16;5078961;28;1217;-26
2023/03/06 11:57:48;;;;;;;;;;;;;;;28.68;21.26;100260.81;5097084;28;1074;-24
2023/03/06 12:00:15;;;;;;;;;;;;;;;28.88;21.04;100254.59;5089359;28;1235;-24
2023/03/06 12:02:59;;;;;;;;;;;;;;;28.88;20.93;100246.47;5096211;28;1017;-23
2023/03/06 12:05:24;;;;;;;;;;;;;;;29.29;20.26;100247.34;5085446;28;1063;-24
2023/03/06 12:07:53;;;;;;;;;;;;;;;28.92;20.95;100255.00;5096396;28;1989;-22
2023/03/06 12:10:37;;;;;;;;;;;;;;;28.83;20.91;100249.81;5096622;28;1051;-22
2023/03/06 12:13:08;;;;;;;;;;;;;;;28.67;20.76;100256.47;5097084;28;1200;-22
2023/03/06 12:15:34;;;;;;;;;;;;;;;28.57;20.45;100253.31;5089495;28;1087;-23
2023/03/06 12:18:15;;;;;;;;;;;;;;;28.44;21.04;100260.38;5096651;28;1082;-24
2023/03/06 12:20:53;;;;;;;;;;;;;;;28.27;20.32;100246.34;5078206;28;1041;-25
2023/03/06 12:23:38;;;;;;;;;;;;;;;27.67;24.96;100245.00;5096681;28;1181;-23
2023/03/06 12:26:15;;;;;;;;;;;;;;;27.41;23.65;100264.59;5078152;28;1023;-23
2023/03/06 12:28:44;;;;;;;;;;;;;;;27.25;21.60;100253.88;5077987;28;1910;-22
2023/03/06 12:31:23;;;;;;;;;;;;;;;27.20;21.35;100271.69;5096362;28;1269;-24
2023/03/06 12:34:07;;;;;;;;;;;;;;;27.15;20.14;100272.28;5078372;28;1061;-24
2023/03/06 12:36:49;;;;;;;;;;;;;;;27.61;19.51;100238.53;5096187;28;1195;-23
2023/03/06 12:39:17;;;;;;;;;;;;;;;27.68;18.48;100235.88;5065283;28;885;-26
2023/03/06 12:41:46;;;;;;;;;;;;;;;27.70;16.16;100223.03;5096990;28;1015;-29
2023/03/06 12:44:26;;;;;;;;;;;;;;;27.30;20.35;100214.63;5096144;28;1093;-27
2023/03/06 12:46:56;;;;;;;;;;;;;;;26.94;20.01;100219.97;5095452;28;1909;-27
2023/03/06 12:49:23;;;;;;;;;;;;;;;27.06;19.68;100219.47;5096334;28;1042;-28
2023/03/06 12:51:49;;;;;;;;;;;;;;;27.31;17.20;100219.84;5096206;28;1003;-26